Time;durP1;ratioP1;P1;durP2;ratioP2;P2;SDS_P1;SDS_P2;PMS_P1;PMS_P2;Temp;Humidity;BMP_temperature;BMP_pressure;BME280_temperature;BME280_humidity;BME280_pressure;Samples;Min_cycle;Max_cycle;Signal;HPM_P1;HPM_P2
2021/05/26 00:01:14;;;;;;;7.83;3.70;;;;;;;10.64;67.32;99970.09;126571;1093;102926;-82
2021/05/26 00:04:03;;;;;;;4.87;3.30;;;;;;;10.63;67.48;99967.55;126489;1101;101936;-82
2021/05/26 00:06:51;;;;;;;6.13;3.77;;;;;;;10.61;67.30;99964.14;126528;1098;102982;-82
2021/05/26 00:09:40;;;;;;;5.60;3.55;;;;;;;10.58;67.27;99972.90;126559;1093;102942;-82
2021/05/26 00:12:28;;;;;;;6.90;3.60;;;;;;;10.57;67.37;99968.59;126517;1098;102956;-82
2021/05/26 00:15:17;;;;;;;6.40;3.30;;;;;;;10.54;67.17;99969.56;126500;1100;103091;-81
2021/05/26 00:18:05;;;;;;;5.87;3.17;;;;;;;10.51;67.21;99972.28;126588;1098;101961;-82
2021/05/26 00:20:53;;;;;;;5.93;3.67;;;;;;;10.48;67.30;99964.58;126546;1098;104130;-81
2021/05/26 00:23:42;;;;;;;6.73;3.40;;;;;;;10.44;67.43;99960.39;126547;1093;102956;-82
2021/05/26 00:26:30;;;;;;;5.13;3.37;;;;;;;10.43;67.28;99968.27;126521;1098;102966;-82
2021/05/26 00:29:20;;;;;;;5.23;3.23;;;;;;;10.41;67.18;99962.23;126572;1093;103110;-82
2021/05/26 00:32:09;;;;;;;5.63;3.77;;;;;;;10.37;67.13;99960.64;126511;1098;103015;-81
2021/05/26 00:34:56;;;;;;;;;;;;;;;10.35;67.39;99971.13;126571;1098;103091;-81
2021/05/26 00:37:44;;;;;;;6.63;3.75;;;;;;;10.31;67.19;99969.55;126604;1098;102957;-81
2021/05/26 00:40:33;;;;;;;6.10;3.13;;;;;;;10.29;67.47;99984.39;126515;1099;101924;-82
2021/05/26 00:43:21;;;;;;;14.70;3.87;;;;;;;10.23;67.36;99976.77;126599;1098;102930;-82
2021/05/26 00:46:09;;;;;;;5.90;3.20;;;;;;;10.21;67.25;99976.82;126443;1098;103013;-82
2021/05/26 00:48:57;;;;;;;5.63;3.10;;;;;;;10.18;67.30;99987.33;126457;1093;102834;-82
2021/05/26 00:51:44;;;;;;;;;;;;;;;10.17;67.29;99989.98;126565;1100;102949;-82
2021/05/26 00:54:32;;;;;;;6.95;3.30;;;;;;;10.15;67.42;99992.65;126562;1098;102746;-82
2021/05/26 00:57:21;;;;;;;5.35;3.20;;;;;;;10.15;67.50;100000.47;126552;1093;103053;-82
2021/05/26 01:00:12;;;;;;;4.63;2.67;;;;;;;10.14;67.40;99992.70;126609;1098;103144;-82
2021/05/26 01:03:02;;;;;;;5.67;3.20;;;;;;;10.13;67.58;99994.46;126441;1100;102966;-82
2021/05/26 01:05:50;;;;;;;4.77;2.80;;;;;;;10.13;67.42;100004.88;126557;1098;102948;-81
2021/05/26 01:08:40;;;;;;;5.15;2.90;;;;;;;10.12;66.99;100004.94;126587;1098;102941;-81
2021/05/26 01:11:28;;;;;;;7.60;3.00;;;;;;;10.12;67.06;100005.79;126827;1098;103043;-82
2021/05/26 01:14:18;;;;;;;5.30;2.67;;;;;;;10.09;66.89;100011.11;126488;1098;103009;-82
2021/05/26 01:17:06;;;;;;;5.03;2.60;;;;;;;10.07;66.85;100014.67;126420;1101;103088;-82
2021/05/26 01:19:53;;;;;;;4.00;2.60;;;;;;;10.03;67.01;100013.05;126567;1098;103059;-82
2021/05/26 01:22:41;;;;;;;4.23;2.67;;;;;;;9.99;66.88;100007.95;126524;1098;103017;-81
2021/05/26 01:25:34;;;;;;;4.07;2.30;;;;;;;9.95;66.67;100010.72;126601;1098;101041;-82
2021/05/26 01:28:27;;;;;;;3.37;2.50;;;;;;;9.90;66.70;100018.69;126499;1098;102984;-82
2021/05/26 01:31:16;;;;;;;3.07;2.10;;;;;;;9.86;66.64;100021.42;126517;1098;103074;-82
2021/05/26 01:34:04;;;;;;;4.37;2.00;;;;;;;9.81;66.84;100029.39;126516;1098;102121;-82
2021/05/26 01:37:00;;;;;;;4.17;2.33;;;;;;;9.77;66.83;100037.36;126615;1098;102932;-82
2021/05/26 01:39:50;;;;;;;3.13;2.30;;;;;;;9.71;67.02;100035.81;126600;1098;102995;-82
2021/05/26 01:42:38;;;;;;;5.43;2.47;;;;;;;9.65;66.79;100039.45;126561;1098;101307;-82
2021/05/26 01:45:33;;;;;;;5.97;2.20;;;;;;;9.61;66.75;100052.62;126579;1098;103043;-82
2021/05/26 01:48:22;;;;;;;3.77;2.13;;;;;;;9.57;66.56;100043.20;126569;1099;102934;-82
2021/05/26 01:51:10;;;;;;;5.87;2.40;;;;;;;9.54;66.80;100049.37;126570;1093;102943;-82
2021/05/26 01:53:58;;;;;;;3.73;2.07;;;;;;;9.51;66.89;100051.19;126592;1098;102995;-82
2021/05/26 01:56:46;;;;;;;4.97;2.30;;;;;;;9.47;66.92;100060.84;126568;1101;102929;-82
2021/05/26 01:59:41;;;;;;;3.37;2.33;;;;;;;9.44;66.83;100060.95;126617;1098;102956;-82
2021/05/26 02:02:33;;;;;;;3.67;2.20;;;;;;;9.39;66.85;100050.68;126495;1099;102924;-82
2021/05/26 02:05:22;;;;;;;4.83;1.90;;;;;;;9.35;66.63;100056.03;126511;1101;102932;-83
2021/05/26 02:08:10;;;;;;;3.97;2.20;;;;;;;9.30;66.72;100057.89;126613;1100;102950;-82
2021/05/26 02:14:09;;;;;;;2.53;1.90;;;;;;;9.21;66.76;100073.80;126706;1098;103029;-82
2021/05/26 02:16:56;;;;;;;4.10;2.47;;;;;;;9.16;67.17;100078.30;126608;1098;103034;-82
2021/05/26 02:19:47;;;;;;;3.77;2.30;;;;;;;9.12;66.97;100074.05;126570;1099;103084;-82
2021/05/26 02:22:36;;;;;;;3.23;2.03;;;;;;;9.06;67.12;100075.94;126590;1093;103518;-82
2021/05/26 02:25:26;;;;;;;4.57;2.43;;;;;;;9.02;67.11;100074.33;126616;1098;103059;-82
2021/05/26 02:28:15;;;;;;;5.67;2.13;;;;;;;8.99;67.36;100084.83;126500;1098;102958;-82
2021/05/26 02:31:02;;;;;;;;;;;;;;;8.95;67.61;100085.78;126634;1098;102947;-81
2021/05/26 02:33:50;;;;;;;3.23;2.13;;;;;;;8.90;67.24;100092.02;126596;1098;103014;-81
2021/05/26 02:36:39;;;;;;;3.13;2.43;;;;;;;8.86;67.79;100104.27;126665;1100;102960;-81
2021/05/26 02:39:26;;;;;;;4.33;2.43;;;;;;;8.79;67.65;100098.36;126621;1098;102988;-81
2021/05/26 02:42:16;;;;;;;4.47;2.53;;;;;;;8.74;67.67;100099.39;126638;1098;103115;-81
2021/05/26 02:45:05;;;;;;;3.73;2.23;;;;;;;8.71;68.05;100094.27;126650;1093;103097;-81
2021/05/26 02:47:53;;;;;;;3.27;2.50;;;;;;;8.65;68.11;100110.05;126668;1098;103054;-81
2021/05/26 02:50:41;;;;;;;3.95;2.75;;;;;;;8.63;68.46;100102.29;126487;1101;102935;-81
2021/05/26 02:53:29;;;;;;;3.40;2.40;;;;;;;8.61;67.96;100092.80;126632;1101;103134;-81
2021/05/26 02:56:18;;;;;;;3.90;2.17;;;;;;;8.60;68.14;100104.09;126525;1101;103097;-81
2021/05/26 02:59:35;;;;;;;3.90;2.00;;;;;;;8.58;68.58;100103.28;126548;1101;102889;-81
2021/05/26 03:02:52;;;;;;;3.90;2.30;;;;;;;8.55;68.45;100095.57;126539;1101;102988;-81
2021/05/26 03:05:41;;;;;;;8.03;2.80;;;;;;;8.52;68.60;100098.25;126529;1101;102939;-81
2021/05/26 03:08:29;;;;;;;4.27;2.70;;;;;;;8.51;68.73;100106.95;126598;1093;102936;-81
2021/05/26 03:11:18;;;;;;;4.37;2.50;;;;;;;8.50;68.65;100106.09;126600;1101;103101;-81
2021/05/26 03:14:22;;;;;;;4.87;2.87;;;;;;;8.51;68.41;100112.14;126590;1101;103087;-81
2021/05/26 03:17:12;;;;;;;8.87;2.53;;;;;;;8.52;68.46;100112.11;126595;1101;103046;-82
2021/05/26 03:20:02;;;;;;;6.10;2.57;;;;;;;8.54;68.57;100117.27;126629;1101;101464;-82
2021/05/26 03:22:50;;;;;;;4.37;2.47;;;;;;;8.54;68.39;100114.66;126560;1101;103032;-82
2021/05/26 03:26:05;;;;;;;2.67;2.23;;;;;;;8.55;68.70;100118.96;126210;1104;103170;-82
2021/05/26 03:28:54;;;;;;;4.13;2.40;;;;;;;8.58;68.66;100114.53;126158;1097;103099;-81
2021/05/26 03:31:42;;;;;;;5.97;2.43;;;;;;;8.62;68.35;100112.73;126176;1104;102942;-81
2021/05/26 03:34:30;;;;;;;5.17;2.37;;;;;;;8.67;68.22;100116.05;126185;1096;102995;-82
2021/05/26 03:37:19;;;;;;;3.23;2.10;;;;;;;8.72;68.01;100116.78;126119;1104;102940;-81
2021/05/26 03:40:19;;;;;;;3.20;1.90;;;;;;;8.74;67.86;100120.19;126060;1104;101919;-81
2021/05/26 03:43:27;;;;;;;3.43;2.30;;;;;;;8.80;68.01;100120.05;126127;1104;103039;-81
2021/05/26 03:46:16;;;;;;;3.30;2.30;;;;;;;8.85;67.67;100112.97;126172;1101;103078;-81
2021/05/26 03:49:05;;;;;;;3.13;2.20;;;;;;;8.90;67.99;100112.83;126201;1104;103173;-81
2021/05/26 03:51:54;;;;;;;5.37;1.93;;;;;;;8.94;67.53;100106.64;126182;1104;103009;-82
2021/05/26 03:54:42;;;;;;;5.37;2.10;;;;;;;9.01;67.48;100122.05;126110;1096;103250;-82
2021/05/26 03:57:31;;;;;;;2.50;2.20;;;;;;;9.06;67.75;100117.56;126112;1104;102959;-81
2021/05/26 04:00:22;;;;;;;5.73;2.53;;;;;;;9.13;67.28;100117.38;126128;1097;103330;-81
2021/05/26 04:03:21;;;;;;;3.30;1.90;;;;;;;9.19;67.40;100112.03;126320;1100;102983;-81
2021/05/26 04:06:10;;;;;;;4.43;1.70;;;;;;;9.24;67.10;100129.20;126535;1100;103066;-81
2021/05/26 04:08:58;;;;;;;2.93;1.90;;;;;;;9.30;67.06;100112.55;126532;1098;102854;-81
2021/05/26 04:11:47;;;;;;;3.70;1.90;;;;;;;9.35;66.73;100119.34;126521;1101;103063;-81
2021/05/26 04:15:00;;;;;;;3.03;2.00;;;;;;;9.43;66.52;100116.52;126601;1101;102943;-81
2021/05/26 04:18:11;;;;;;;4.03;2.00;;;;;;;9.49;66.50;100123.28;126593;1101;102982;-81
2021/05/26 04:21:03;;;;;;;3.47;1.80;;;;;;;9.55;66.13;100128.33;126574;1101;103120;-81
2021/05/26 04:23:55;;;;;;;3.37;1.67;;;;;;;9.60;66.00;100137.69;126577;1101;103019;-81
2021/05/26 04:26:43;;;;;;;2.03;1.57;;;;;;;9.66;66.08;100137.50;126573;1101;103030;-81
2021/05/26 04:29:33;;;;;;;4.03;2.00;;;;;;;9.70;65.83;100140.89;126541;1100;103004;-81
2021/05/26 04:32:22;;;;;;;4.40;1.80;;;;;;;9.74;65.66;100137.28;126631;1101;103026;-81
2021/05/26 04:35:11;;;;;;;2.60;1.53;;;;;;;9.81;65.32;100140.55;126622;1101;103004;-81
2021/05/26 04:38:00;;;;;;;2.37;1.57;;;;;;;9.85;65.63;100135.18;126590;1093;102942;-81
2021/05/26 04:40:48;;;;;;;2.47;1.63;;;;;;;9.92;65.45;100144.53;126544;1100;102950;-81
2021/05/26 04:43:37;;;;;;;3.17;1.60;;;;;;;10.03;65.34;100138.12;126626;1101;102973;-81
2021/05/26 04:46:24;;;;;;;4.40;1.80;;;;;;;10.12;64.92;100143.91;126557;1101;103399;-81
2021/05/26 04:49:13;;;;;;;3.67;1.80;;;;;;;10.18;64.84;100148.06;126602;1101;103005;-81
2021/05/26 04:52:01;;;;;;;2.73;1.70;;;;;;;10.25;64.51;100150.47;126538;1101;102920;-81
2021/05/26 04:54:49;;;;;;;4.93;1.60;;;;;;;10.35;64.34;100147.55;126570;1101;102949;-81
2021/05/26 04:57:36;;;;;;;2.63;1.70;;;;;;;10.45;64.25;100151.57;126572;1101;102787;-81
2021/05/26 05:00:24;;;;;;;3.20;1.93;;;;;;;10.57;64.14;100151.14;126553;1101;103033;-81
2021/05/26 05:03:12;;;;;;;2.83;1.90;;;;;;;10.71;63.59;100148.92;126529;1101;102962;-81
2021/05/26 05:05:59;;;;;;;2.33;1.57;;;;;;;10.88;63.56;100146.59;126587;1101;103170;-82
2021/05/26 05:08:48;;;;;;;1.63;1.43;;;;;;;11.09;63.29;100138.90;126575;1101;102922;-82
2021/05/26 05:11:38;;;;;;;2.00;1.30;;;;;;;11.31;62.63;100145.06;126554;1101;102872;-81
2021/05/26 05:14:27;;;;;;;2.80;1.63;;;;;;;11.56;62.39;100144.99;126576;1101;103085;-81
2021/05/26 05:17:16;;;;;;;2.73;1.30;;;;;;;11.83;62.21;100150.95;126565;1101;103033;-81
2021/05/26 05:20:07;;;;;;;2.97;1.53;;;;;;;12.06;61.35;100137.84;126559;1101;102986;-84
2021/05/26 05:22:56;;;;;;;4.10;1.57;;;;;;;12.22;60.89;100145.08;126519;1093;102976;-82
2021/05/26 05:25:43;;;;;;;2.70;1.30;;;;;;;12.42;60.55;100141.64;126508;1101;103038;-81
2021/05/26 05:28:31;;;;;;;;;;;;;;;12.63;59.80;100117.20;126614;1101;102931;-81
2021/05/26 05:31:19;;;;;;;2.83;1.50;;;;;;;12.78;59.63;100147.09;126547;1101;103027;-81
2021/05/26 05:34:07;;;;;;;1.40;1.20;;;;;;;13.11;59.24;100137.78;126597;1101;103011;-82
2021/05/26 05:36:54;;;;;;;2.70;1.17;;;;;;;14.08;58.02;100153.40;126552;1101;102976;-82
2021/05/26 05:39:43;;;;;;;2.20;1.30;;;;;;;16.08;55.62;100145.61;126568;1101;103099;-82
2021/05/26 05:42:30;;;;;;;3.83;1.50;;;;;;;18.26;52.16;100129.66;126558;1101;102937;-82
2021/05/26 05:45:19;;;;;;;2.00;1.30;;;;;;;20.36;50.33;100126.42;126558;1093;102990;-82
2021/05/26 05:48:10;;;;;;;2.73;1.17;;;;;;;22.15;46.58;100118.60;126548;1101;102988;-82
2021/05/26 05:51:00;;;;;;;1.63;0.83;;;;;;;23.48;43.67;100106.28;126606;1101;103039;-82
2021/05/26 05:53:48;;;;;;;1.95;1.05;;;;;;;24.98;41.52;100104.14;126617;1101;102945;-82
2021/05/26 05:56:35;;;;;;;2.07;0.90;;;;;;;26.35;39.09;100110.47;126597;1101;102852;-82
2021/05/26 05:59:23;;;;;;;1.80;1.10;;;;;;;27.22;37.12;100085.51;126548;1101;100751;-82
2021/05/26 06:02:11;;;;;;;2.13;1.10;;;;;;;28.13;34.14;100096.35;126464;1101;103111;-83
2021/05/26 06:04:59;;;;;;;1.57;1.00;;;;;;;28.60;33.91;100107.31;126570;1101;103208;-82
2021/05/26 06:07:46;;;;;;;1.37;0.97;;;;;;;29.36;32.11;100098.77;126528;1101;102936;-82
2021/05/26 06:10:35;;;;;;;1.47;1.00;;;;;;;29.84;31.30;100102.27;126567;1101;102929;-82
2021/05/26 06:13:23;;;;;;;1.77;1.00;;;;;;;30.01;30.30;100103.84;126624;1101;102960;-82
2021/05/26 06:16:10;;;;;;;2.40;1.00;;;;;;;30.41;29.38;100099.19;126556;1101;102936;-82
2021/05/26 06:18:58;;;;;;;1.30;0.70;;;;;;;28.60;29.27;100115.36;126639;1101;102516;-81
2021/05/26 06:21:46;;;;;;;3.13;1.10;;;;;;;27.02;29.70;100109.00;126813;1101;102963;-80
2021/05/26 06:24:35;;;;;;;1.97;0.90;;;;;;;27.31;30.03;100117.53;126687;1101;101701;-81
2021/05/26 06:27:22;;;;;;;3.50;0.83;;;;;;;26.89;29.44;100128.11;126691;1101;103126;-81
2021/05/26 06:30:14;;;;;;;1.60;0.80;;;;;;;27.51;29.77;100107.41;126686;1101;102794;-81
2021/05/26 06:33:02;;;;;;;1.30;0.70;;;;;;;27.87;28.91;100116.09;126652;1101;101547;-81
2021/05/26 06:35:51;;;;;;;7.17;0.70;;;;;;;27.56;27.75;100113.11;126611;1101;102872;-81
2021/05/26 06:38:39;;;;;;;2.77;0.80;;;;;;;28.25;27.34;100103.08;126601;1101;101689;-79
2021/05/26 06:41:28;;;;;;;4.87;0.80;;;;;;;27.88;27.00;100119.61;126667;1101;102949;-81
2021/05/26 06:44:17;;;;;;;0.83;0.63;;;;;;;26.19;27.29;100122.66;126702;1101;103629;-80
2021/05/26 06:47:04;;;;;;;1.80;0.80;;;;;;;24.52;29.30;100128.92;126593;1101;103075;-81
2021/05/26 06:49:52;;;;;;;0.80;0.50;;;;;;;24.48;29.73;100127.53;126661;1093;102997;-81
2021/05/26 06:52:40;;;;;;;3.57;0.70;;;;;;;24.07;30.69;100134.78;126717;1098;102924;-82
2021/05/26 06:55:31;;;;;;;1.37;0.60;;;;;;;23.54;30.40;100120.90;126726;1098;102345;-82
2021/05/26 06:58:19;;;;;;;3.23;0.60;;;;;;;22.10;31.90;100132.27;126570;1098;101269;-83
2021/05/26 07:01:07;;;;;;;2.40;0.80;;;;;;;21.53;33.07;100130.63;126511;1101;103552;-82
2021/05/26 07:03:55;;;;;;;4.67;1.00;;;;;;;22.11;32.46;100133.11;126601;1098;102978;-81
2021/05/26 07:06:44;;;;;;;1.60;0.93;;;;;;;21.70;33.13;100135.44;126684;1099;103580;-81
2021/05/26 07:09:32;;;;;;;1.53;0.70;;;;;;;22.70;32.54;100135.27;126779;1093;103056;-82
2021/05/26 07:12:20;;;;;;;1.40;0.60;;;;;;;22.93;31.35;100134.17;126625;1098;102924;-82
2021/05/26 07:15:09;;;;;;;3.57;0.80;;;;;;;22.08;32.75;100144.80;126854;1098;103358;-81
2021/05/26 07:18:02;;;;;;;1.77;0.63;;;;;;;21.03;33.58;100146.05;126681;1099;102930;-81
2021/05/26 07:20:53;;;;;;;1.43;0.80;;;;;;;20.22;34.87;100151.27;126730;1100;103011;-81
2021/05/26 07:23:41;;;;;;;1.30;0.70;;;;;;;19.66;35.10;100150.94;126681;1099;101904;-81
2021/05/26 07:26:29;;;;;;;1.80;0.83;;;;;;;18.91;36.36;100153.50;126578;1098;103092;-81
2021/05/26 07:29:17;;;;;;;2.10;0.90;;;;;;;18.20;37.05;100166.18;126871;1098;103039;-81
2021/05/26 07:32:05;;;;;;;2.03;1.00;;;;;;;17.50;37.91;100166.19;126631;1098;102869;-81
2021/05/26 07:34:53;;;;;;;2.00;0.85;;;;;;;17.65;38.65;100157.33;126612;1099;101205;-82
2021/05/26 07:37:41;;;;;;;3.10;0.97;;;;;;;17.81;37.87;100154.60;126612;1098;102921;-82
2021/05/26 07:40:29;;;;;;;3.97;0.80;;;;;;;17.54;38.79;100157.13;126605;1098;103099;-81
2021/05/26 07:43:17;;;;;;;2.40;0.90;;;;;;;17.57;39.32;100156.09;126646;1097;103024;-82
2021/05/26 07:46:05;;;;;;;1.77;0.90;;;;;;;17.98;39.07;100154.38;126613;1098;103000;-82
2021/05/26 07:48:53;;;;;;;2.70;0.70;;;;;;;19.05;38.11;100151.72;126653;1098;102962;-81
2021/05/26 07:51:45;;;;;;;2.33;0.77;;;;;;;19.70;36.23;100151.56;126654;1098;101522;-81
2021/05/26 07:54:34;;;;;;;3.43;0.80;;;;;;;20.09;36.55;100150.47;126539;1100;102970;-82
2021/05/26 07:57:22;;;;;;;1.50;0.70;;;;;;;20.32;36.30;100144.35;126584;1098;102956;-82
2021/05/26 08:00:11;;;;;;;1.63;0.70;;;;;;;19.81;35.33;100144.55;126408;1101;102995;-81
2021/05/26 08:03:20;;;;;;;2.93;0.90;;;;;;;18.97;36.43;100145.14;126459;1101;102932;-81
2021/05/26 08:06:09;;;;;;;3.20;0.90;;;;;;;18.40;36.68;100157.80;126423;1096;103080;-81
2021/05/26 08:08:57;;;;;;;2.23;0.90;;;;;;;17.76;37.19;100151.38;126438;1101;103009;-81
2021/05/26 08:11:44;;;;;;;2.43;1.10;;;;;;;17.41;38.23;100143.86;126422;1101;103025;-81
2021/05/26 08:14:36;;;;;;;4.70;1.17;;;;;;;17.18;39.01;100147.06;126415;1101;103091;-80
2021/05/26 08:17:24;;;;;;;3.87;1.03;;;;;;;17.34;39.49;100146.98;126464;1101;102997;-81
2021/05/26 08:20:13;;;;;;;4.75;1.05;;;;;;;17.50;39.89;100143.30;126476;1101;104083;-81
2021/05/26 08:23:00;;;;;;;11.50;1.27;;;;;;;18.15;39.22;100142.73;126515;1097;103029;-81
2021/05/26 08:25:47;;;;;;;;;;;;;;;18.93;37.69;100140.17;126531;1101;101265;-82
2021/05/26 08:28:35;;;;;;;1.93;0.93;;;;;;;18.93;37.85;100142.82;126595;1101;102926;-81
2021/05/26 08:31:23;;;;;;;2.37;1.13;;;;;;;18.78;37.77;100146.50;126494;1094;101858;-81
2021/05/26 08:34:16;;;;;;;3.40;0.90;;;;;;;18.35;37.70;100151.98;126553;1100;103212;-82
2021/05/26 08:37:03;;;;;;;2.30;1.00;;;;;;;17.83;38.09;100139.52;126527;1093;101722;-82
2021/05/26 08:39:51;;;;;;;1.90;0.93;;;;;;;17.56;38.85;100141.21;126666;1098;103033;-81
2021/05/26 08:42:43;;;;;;;2.03;1.03;;;;;;;17.39;38.93;100156.29;126677;1098;102783;-81
2021/05/26 08:45:30;;;;;;;5.67;1.33;;;;;;;17.28;39.38;100150.84;126686;1098;102914;-81
2021/05/26 08:48:20;;;;;;;;;;;;;;;17.16;39.70;100148.95;126901;1098;102968;-80
2021/05/26 08:51:13;;;;;;;4.07;1.10;;;;;;;17.26;39.52;100172.97;126595;1098;102966;-82
2021/05/26 08:54:02;;;;;;;2.47;0.80;;;;;;;17.50;39.00;100147.73;126661;1098;103533;-81
2021/05/26 08:56:50;;;;;;;11.20;1.20;;;;;;;17.53;39.34;100145.73;126581;1098;103106;-83
2021/05/26 08:59:37;;;;;;;;;;;;;;;17.52;39.53;100149.32;126614;1100;102955;-82
2021/05/26 09:02:25;;;;;;;;;;;;;;;17.50;39.33;100151.21;126703;1098;101478;-82
2021/05/26 09:05:27;;;;;;;3.57;1.13;;;;;;;17.39;39.28;100158.92;126533;1093;103086;-81
2021/05/26 09:08:19;;;;;;;3.80;1.00;;;;;;;17.28;39.49;100147.37;126636;1098;103001;-82
2021/05/26 09:11:07;;;;;;;3.33;0.90;;;;;;;17.80;38.60;100158.19;126575;1098;102997;-82
2021/05/26 09:13:54;;;;;;;;;;;;;;;17.84;38.66;100143.84;126693;1098;102952;-82
2021/05/26 09:16:42;;;;;;;5.70;1.30;;;;;;;17.74;39.04;100153.27;126670;1098;102888;-82
2021/05/26 09:19:30;;;;;;;3.27;0.90;;;;;;;17.95;39.14;100125.52;126602;1098;102921;-81
2021/05/26 09:22:23;;;;;;;2.00;0.90;;;;;;;18.31;38.60;100126.70;126699;1098;102044;-81
2021/05/26 09:25:11;;;;;;;1.97;1.03;;;;;;;18.42;38.48;100126.85;126655;1099;102950;-81
2021/05/26 09:28:33;;;;;;;2.37;1.10;;;;;;;18.58;37.51;100111.67;126672;1098;102928;-82
2021/05/26 09:31:22;;;;;;;2.37;0.97;;;;;;;18.35;37.66;100121.14;126632;1098;102966;-82
2021/05/26 09:34:09;;;;;;;3.63;1.20;;;;;;;18.38;38.28;100134.14;126602;1098;103019;-82
2021/05/26 09:36:57;;;;;;;3.93;1.07;;;;;;;18.79;38.02;100119.97;126668;1098;102985;-82
2021/05/26 09:39:46;;;;;;;4.93;1.20;;;;;;;19.48;37.00;100128.41;126641;1098;102974;-82
2021/05/26 09:42:45;;;;;;;2.43;1.10;;;;;;;20.07;37.04;100129.41;126818;1098;102958;-82
2021/05/26 09:45:33;;;;;;;3.33;1.00;;;;;;;20.26;36.45;100112.16;126788;1098;103109;-82
2021/05/26 09:48:40;;;;;;;3.90;0.93;;;;;;;20.24;36.06;100125.52;126674;1098;103000;-81
2021/05/26 09:51:31;;;;;;;4.33;1.20;;;;;;;20.06;35.41;100118.94;126600;1101;103062;-81
2021/05/26 09:54:27;;;;;;;2.97;1.10;;;;;;;20.02;35.42;100126.26;126658;1101;103113;-81
2021/05/26 09:57:15;;;;;;;4.40;1.07;;;;;;;20.26;34.30;100128.89;126569;1101;103000;-81
2021/05/26 10:00:04;;;;;;;5.20;1.20;;;;;;;20.14;33.80;100125.38;126557;1101;103024;-81
2021/05/26 10:02:52;;;;;;;5.33;1.20;;;;;;;20.41;34.86;100121.65;126470;1101;103139;-82
2021/05/26 10:05:40;;;;;;;3.40;1.20;;;;;;;20.66;34.58;100104.77;126605;1101;103109;-82
2021/05/26 10:08:48;;;;;;;2.30;1.37;;;;;;;20.44;34.01;100118.77;126593;1101;102984;-82
2021/05/26 10:11:56;;;;;;;3.93;1.00;;;;;;;20.38;34.78;100111.25;126574;1101;103174;-82
2021/05/26 10:14:46;;;;;;;6.33;1.33;;;;;;;20.42;34.92;100116.23;126553;1101;103418;-82
2021/05/26 10:17:41;;;;;;;2.60;1.30;;;;;;;20.67;33.74;100101.99;126543;1101;103274;-82
2021/05/26 10:20:37;;;;;;;2.40;1.15;;;;;;;20.08;33.16;100109.07;126565;1101;103083;-82
2021/05/26 10:23:25;;;;;;;3.67;1.13;;;;;;;19.38;34.58;100092.97;126523;1101;102925;-82
2021/05/26 10:26:13;;;;;;;3.37;1.50;;;;;;;19.45;35.56;100083.66;126589;1101;103072;-81
2021/05/26 10:29:28;;;;;;;6.93;1.50;;;;;;;20.06;35.41;100101.24;126503;1101;102969;-82
2021/05/26 10:32:15;;;;;;;7.30;1.20;;;;;;;20.07;33.94;100102.09;126540;1101;102931;-82
2021/05/26 10:35:06;;;;;;;2.40;1.10;;;;;;;19.90;34.33;100096.23;126441;1093;103043;-82
2021/05/26 10:38:03;;;;;;;3.33;1.20;;;;;;;20.15;34.62;100086.50;126576;1101;103058;-80
2021/05/26 10:40:53;;;;;;;4.93;1.50;;;;;;;20.47;34.35;100076.17;126581;1101;102979;-81
2021/05/26 10:43:52;;;;;;;2.37;0.90;;;;;;;20.53;33.87;100077.50;126541;1093;103029;-82
2021/05/26 10:46:41;;;;;;;3.65;1.10;;;;;;;20.63;33.04;100075.82;126466;1101;102391;-80
2021/05/26 10:49:49;;;;;;;4.00;1.13;;;;;;;20.67;33.34;100026.95;126474;1101;103136;-82
2021/05/26 10:53:10;;;;;;;;;;;;;;;20.65;32.91;100055.38;126638;1100;102808;-80
2021/05/26 10:55:58;;;;;;;3.85;1.30;;;;;;;20.22;32.15;100058.59;126563;1101;101475;-80
2021/05/26 10:58:47;;;;;;;7.20;1.27;;;;;;;19.90;33.12;100074.20;126227;1101;103009;-82
2021/05/26 11:02:13;;;;;;;4.33;1.03;;;;;;;19.75;33.44;100062.97;126187;1102;103405;-81
2021/05/26 11:05:33;;;;;;;2.47;0.90;;;;;;;19.68;33.62;100061.70;126232;1101;103171;-83
2021/05/26 11:08:57;;;;;;;5.67;1.33;;;;;;;19.64;34.95;100059.41;126249;1101;101502;-83
2021/05/26 11:11:49;;;;;;;4.23;1.30;;;;;;;20.05;34.05;100035.17;126183;1105;103125;-82
2021/05/26 11:14:40;;;;;;;4.50;1.10;;;;;;;20.14;33.61;100039.80;126177;1104;102933;-81
2021/05/26 11:17:42;;;;;;;3.23;1.00;;;;;;;20.03;33.90;100032.64;126050;1099;103007;-82
2021/05/26 11:20:31;;;;;;;6.00;1.00;;;;;;;20.05;33.84;100051.06;125967;1105;103114;-82
2021/05/26 11:23:21;;;;;;;3.73;1.10;;;;;;;19.98;33.15;100048.03;126018;1104;102978;-81
2021/05/26 11:26:11;;;;;;;3.00;1.10;;;;;;;19.98;33.34;100045.39;126008;1104;102963;-81
2021/05/26 11:28:59;;;;;;;5.20;1.00;;;;;;;19.90;33.87;100045.09;125940;1104;103231;-81
2021/05/26 11:31:47;;;;;;;3.33;1.00;;;;;;;19.85;34.01;100050.73;125971;1104;103144;-81
2021/05/26 11:34:36;;;;;;;5.23;0.87;;;;;;;19.76;33.18;100037.35;126202;1101;102669;-81
2021/05/26 11:37:29;;;;;;;2.03;1.00;;;;;;;19.76;33.74;100040.84;126188;1101;102964;-81
2021/05/26 11:40:23;;;;;;;1.83;0.70;;;;;;;19.63;33.31;100024.17;126110;1104;103003;-81
2021/05/26 11:43:13;;;;;;;2.73;1.13;;;;;;;19.70;34.06;100041.27;126226;1101;103029;-81
2021/05/26 11:46:06;;;;;;;2.83;0.90;;;;;;;20.02;33.20;100046.00;126211;1098;102779;-81
2021/05/26 11:48:54;;;;;;;2.07;0.90;;;;;;;20.12;32.65;100036.42;126618;1098;103359;-81
2021/05/26 11:51:41;;;;;;;3.10;0.87;;;;;;;19.97;32.71;100048.16;126553;1098;102979;-81
2021/05/26 11:54:29;;;;;;;5.73;1.10;;;;;;;20.03;32.42;100048.53;126529;1098;103014;-81
2021/05/26 11:57:17;;;;;;;4.57;0.80;;;;;;;20.08;32.82;100030.48;126594;1098;102990;-82
2021/05/26 12:00:07;;;;;;;3.73;1.00;;;;;;;19.88;32.89;100039.91;126606;1098;103612;-81
2021/05/26 12:03:09;;;;;;;4.53;1.20;;;;;;;19.74;33.18;100034.79;126569;1098;102968;-81
2021/05/26 12:05:58;;;;;;;2.00;1.00;;;;;;;19.72;33.01;100028.77;126760;1098;103037;-81
2021/05/26 12:08:46;;;;;;;3.77;0.87;;;;;;;19.78;32.80;100033.63;126592;1098;102941;-81
2021/05/26 12:11:34;;;;;;;3.27;1.10;;;;;;;19.82;32.64;100029.80;126552;1098;102930;-80
2021/05/26 12:14:25;;;;;;;3.37;0.90;;;;;;;19.94;32.93;100021.91;126716;1098;103054;-80
2021/05/26 12:17:16;;;;;;;2.77;0.83;;;;;;;20.12;33.00;100023.19;126544;1098;102931;-80
2021/05/26 12:20:06;;;;;;;2.83;0.90;;;;;;;20.13;32.19;100032.81;126610;1100;103115;-81
2021/05/26 12:22:58;;;;;;;2.80;1.00;;;;;;;19.92;32.50;100025.49;126589;1098;103042;-81
2021/05/26 12:25:47;;;;;;;4.00;0.90;;;;;;;20.03;32.62;100010.63;126688;1098;101009;-81
2021/05/26 12:28:35;;;;;;;3.50;0.90;;;;;;;20.10;32.61;100004.73;126501;1099;102974;-81
2021/05/26 12:31:27;;;;;;;4.80;1.30;;;;;;;20.21;31.36;100009.23;126596;1098;102952;-81
2021/05/26 12:34:20;;;;;;;6.03;1.00;;;;;;;20.16;31.37;100003.45;126512;1100;102928;-81
2021/05/26 12:37:09;;;;;;;4.13;1.00;;;;;;;20.23;32.51;100004.66;126504;1093;103015;-81
2021/05/26 12:39:57;;;;;;;2.33;0.90;;;;;;;20.41;31.59;100011.23;126658;1100;102940;-80
2021/05/26 12:42:46;;;;;;;2.90;0.90;;;;;;;20.49;31.47;99995.61;126605;1093;102763;-80
2021/05/26 12:45:43;;;;;;;5.23;1.30;;;;;;;20.50;30.95;99984.05;126560;1099;103217;-81
2021/05/26 12:48:32;;;;;;;3.07;1.10;;;;;;;20.58;30.61;99977.30;126699;1098;102954;-81
2021/05/26 12:51:21;;;;;;;4.10;1.10;;;;;;;20.69;31.06;99993.22;126621;1101;102943;-81
2021/05/26 12:54:11;;;;;;;3.27;1.10;;;;;;;20.72;30.57;99969.13;126491;1101;103056;-81
2021/05/26 12:57:06;;;;;;;5.90;1.30;;;;;;;20.66;31.14;99982.86;126485;1101;103100;-81
2021/05/26 12:59:57;;;;;;;5.10;0.93;;;;;;;20.72;30.59;99974.42;126449;1093;102990;-81
2021/05/26 13:02:46;;;;;;;2.27;0.80;;;;;;;20.78;30.52;99958.03;126478;1101;102936;-81
2021/05/26 13:05:40;;;;;;;5.53;1.20;;;;;;;20.68;30.92;99959.73;126487;1101;102146;-81